sensor_id;sensor_type;location;lat;lon;timestamp;P1;durP1;ratioP1;P2;durP2;ratioP2
75937;SDS011;64615;32.062;34.834;2024-02-14T00:02:20;17.90;;;6.07;;
75937;SDS011;64615;32.062;34.834;2024-02-14T00:04:46;17.23;;;6.00;;
75937;SDS011;64615;32.062;34.834;2024-02-14T00:07:13;13.40;;;6.10;;
75937;SDS011;64615;32.062;34.834;2024-02-14T00:09:39;17.50;;;6.18;;
75937;SDS011;64615;32.062;34.834;2024-02-14T00:12:05;20.95;;;6.60;;
75937;SDS011;64615;32.062;34.834;2024-02-14T00:14:31;21.85;;;6.72;;
75937;SDS011;64615;32.062;34.834;2024-02-14T00:16:57;17.42;;;6.68;;
75937;SDS011;64615;32.062;34.834;2024-02-14T00:19:24;14.15;;;5.60;;
75937;SDS011;64615;32.062;34.834;2024-02-14T00:21:50;17.98;;;6.43;;
75937;SDS011;64615;32.062;34.834;2024-02-14T00:24:15;18.40;;;5.97;;
75937;SDS011;64615;32.062;34.834;2024-02-14T00:26:42;15.82;;;5.82;;
75937;SDS011;64615;32.062;34.834;2024-02-14T00:29:08;18.38;;;6.47;;
75937;SDS011;64615;32.062;34.834;2024-02-14T00:31:33;14.63;;;6.07;;
75937;SDS011;64615;32.062;34.834;2024-02-14T00:33:59;12.93;;;5.72;;
75937;SDS011;64615;32.062;34.834;2024-02-14T00:36:24;18.30;;;5.80;;
75937;SDS011;64615;32.062;34.834;2024-02-14T00:38:51;13.95;;;5.70;;
75937;SDS011;64615;32.062;34.834;2024-02-14T00:41:16;18.75;;;6.18;;
75937;SDS011;64615;32.062;34.834;2024-02-14T00:43:42;17.10;;;5.60;;
75937;SDS011;64615;32.062;34.834;2024-02-14T00:46:08;17.17;;;6.05;;
75937;SDS011;64615;32.062;34.834;2024-02-14T00:48:33;13.50;;;5.53;;
75937;SDS011;64615;32.062;34.834;2024-02-14T00:50:59;15.82;;;5.72;;
75937;SDS011;64615;32.062;34.834;2024-02-14T00:53:24;13.60;;;5.32;;
75937;SDS011;64615;32.062;34.834;2024-02-14T00:55:50;14.57;;;6.38;;
75937;SDS011;64615;32.062;34.834;2024-02-14T00:58:16;17.75;;;5.72;;
75937;SDS011;64615;32.062;34.834;2024-02-14T01:00:42;13.77;;;5.32;;
75937;SDS011;64615;32.062;34.834;2024-02-14T01:03:08;15.02;;;5.97;;
75937;SDS011;64615;32.062;34.834;2024-02-14T01:05:37;14.20;;;5.13;;
75937;SDS011;64615;32.062;34.834;2024-02-14T01:08:03;15.68;;;5.20;;
75937;SDS011;64615;32.062;34.834;2024-02-14T01:10:29;14.50;;;5.63;;
75937;SDS011;64615;32.062;34.834;2024-02-14T01:12:55;14.13;;;5.18;;
75937;SDS011;64615;32.062;34.834;2024-02-14T01:15:21;13.13;;;5.30;;
75937;SDS011;64615;32.062;34.834;2024-02-14T01:17:47;16.73;;;5.28;;
75937;SDS011;64615;32.062;34.834;2024-02-14T01:20:12;13.85;;;5.05;;
75937;SDS011;64615;32.062;34.834;2024-02-14T01:22:38;13.40;;;5.53;;
75937;SDS011;64615;32.062;34.834;2024-02-14T01:25:04;13.70;;;4.82;;
75937;SDS011;64615;32.062;34.834;2024-02-14T01:27:30;14.63;;;4.97;;
75937;SDS011;64615;32.062;34.834;2024-02-14T01:29:55;11.82;;;4.90;;
75937;SDS011;64615;32.062;34.834;2024-02-14T01:32:22;13.10;;;5.03;;
75937;SDS011;64615;32.062;34.834;2024-02-14T01:34:48;16.38;;;5.13;;
75937;SDS011;64615;32.062;34.834;2024-02-14T01:37:13;13.68;;;5.07;;
75937;SDS011;64615;32.062;34.834;2024-02-14T01:39:39;13.70;;;4.88;;
75937;SDS011;64615;32.062;34.834;2024-02-14T01:42:05;14.02;;;4.97;;
75937;SDS011;64615;32.062;34.834;2024-02-14T01:44:32;12.52;;;4.85;;
75937;SDS011;64615;32.062;34.834;2024-02-14T01:46:59;15.27;;;5.35;;
75937;SDS011;64615;32.062;34.834;2024-02-14T01:49:25;15.80;;;4.82;;
75937;SDS011;64615;32.062;34.834;2024-02-14T01:51:58;12.18;;;4.28;;
75937;SDS011;64615;32.062;34.834;2024-02-14T01:54:26;11.75;;;4.65;;
75937;SDS011;64615;32.062;34.834;2024-02-14T01:56:53;15.30;;;4.43;;
75937;SDS011;64615;32.062;34.834;2024-02-14T01:59:20;13.93;;;4.88;;
75937;SDS011;64615;32.062;34.834;2024-02-14T02:01:46;13.02;;;5.00;;
75937;SDS011;64615;32.062;34.834;2024-02-14T02:04:11;12.38;;;4.88;;
75937;SDS011;64615;32.062;34.834;2024-02-14T02:06:37;15.23;;;4.60;;
75937;SDS011;64615;32.062;34.834;2024-02-14T02:09:06;14.10;;;4.47;;
75937;SDS011;64615;32.062;34.834;2024-02-14T02:11:53;11.50;;;4.72;;
75937;SDS011;64615;32.062;34.834;2024-02-14T02:14:21;13.82;;;4.40;;
75937;SDS011;64615;32.062;34.834;2024-02-14T02:16:47;12.30;;;4.40;;
75937;SDS011;64615;32.062;34.834;2024-02-14T02:19:14;13.77;;;4.70;;
75937;SDS011;64615;32.062;34.834;2024-02-14T02:21:43;13.68;;;4.60;;
75937;SDS011;64615;32.062;34.834;2024-02-14T02:24:11;13.82;;;3.97;;
75937;SDS011;64615;32.062;34.834;2024-02-14T02:26:37;11.93;;;4.47;;
75937;SDS011;64615;32.062;34.834;2024-02-14T02:29:02;12.00;;;4.30;;
75937;SDS011;64615;32.062;34.834;2024-02-14T02:31:30;12.85;;;4.18;;
75937;SDS011;64615;32.062;34.834;2024-02-14T02:33:56;13.40;;;4.60;;
75937;SDS011;64615;32.062;34.834;2024-02-14T02:36:22;15.50;;;4.25;;
75937;SDS011;64615;32.062;34.834;2024-02-14T02:38:49;15.65;;;4.97;;
75937;SDS011;64615;32.062;34.834;2024-02-14T02:41:15;11.88;;;4.28;;
75937;SDS011;64615;32.062;34.834;2024-02-14T02:43:41;10.10;;;3.70;;
75937;SDS011;64615;32.062;34.834;2024-02-14T02:46:10;10.20;;;4.40;;
75937;SDS011;64615;32.062;34.834;2024-02-14T02:48:36;14.20;;;4.38;;
75937;SDS011;64615;32.062;34.834;2024-02-14T02:51:01;11.35;;;3.97;;
75937;SDS011;64615;32.062;34.834;2024-02-14T02:53:27;13.48;;;4.20;;
75937;SDS011;64615;32.062;34.834;2024-02-14T02:55:52;13.65;;;4.43;;
75937;SDS011;64615;32.062;34.834;2024-02-14T02:58:19;13.25;;;4.35;;
75937;SDS011;64615;32.062;34.834;2024-02-14T03:00:46;9.40;;;3.72;;
75937;SDS011;64615;32.062;34.834;2024-02-14T03:03:14;10.40;;;4.22;;
75937;SDS011;64615;32.062;34.834;2024-02-14T03:05:41;15.93;;;4.18;;
75937;SDS011;64615;32.062;34.834;2024-02-14T03:08:09;11.10;;;4.00;;
75937;SDS011;64615;32.062;34.834;2024-02-14T03:10:39;12.05;;;4.18;;
75937;SDS011;64615;32.062;34.834;2024-02-14T03:13:06;9.50;;;3.60;;
75937;SDS011;64615;32.062;34.834;2024-02-14T03:15:37;13.65;;;4.00;;
75937;SDS011;64615;32.062;34.834;2024-02-14T03:18:03;14.18;;;4.15;;
75937;SDS011;64615;32.062;34.834;2024-02-14T03:20:34;13.13;;;4.28;;
75937;SDS011;64615;32.062;34.834;2024-02-14T03:23:01;13.85;;;3.70;;
75937;SDS011;64615;32.062;34.834;2024-02-14T03:25:29;16.50;;;4.43;;
75937;SDS011;64615;32.062;34.834;2024-02-14T03:27:54;10.82;;;3.95;;
75937;SDS011;64615;32.062;34.834;2024-02-14T03:30:22;14.35;;;3.70;;
75937;SDS011;64615;32.062;34.834;2024-02-14T03:32:51;13.13;;;4.07;;
75937;SDS011;64615;32.062;34.834;2024-02-14T03:35:17;11.70;;;3.53;;
75937;SDS011;64615;32.062;34.834;2024-02-14T03:37:46;13.45;;;3.80;;
75937;SDS011;64615;32.062;34.834;2024-02-14T03:40:17;14.38;;;4.05;;
75937;SDS011;64615;32.062;34.834;2024-02-14T03:42:43;13.00;;;3.75;;
75937;SDS011;64615;32.062;34.834;2024-02-14T03:45:09;17.10;;;4.07;;
75937;SDS011;64615;32.062;34.834;2024-02-14T03:47:35;11.82;;;3.65;;
75937;SDS011;64615;32.062;34.834;2024-02-14T03:50:04;13.68;;;3.90;;
75937;SDS011;64615;32.062;34.834;2024-02-14T03:52:31;13.98;;;3.80;;
75937;SDS011;64615;32.062;34.834;2024-02-14T03:54:59;18.23;;;4.20;;
75937;SDS011;64615;32.062;34.834;2024-02-14T03:57:26;18.27;;;4.05;;
75937;SDS011;64615;32.062;34.834;2024-02-14T03:59:55;22.75;;;4.00;;
75937;SDS011;64615;32.062;34.834;2024-02-14T04:02:21;15.90;;;3.22;;
75937;SDS011;64615;32.062;34.834;2024-02-14T04:04:48;12.98;;;3.55;;
75937;SDS011;64615;32.062;34.834;2024-02-14T04:07:14;20.75;;;3.92;;
75937;SDS011;64615;32.062;34.834;2024-02-14T04:09:40;9.68;;;3.50;;
75937;SDS011;64615;32.062;34.834;2024-02-14T04:12:05;15.60;;;3.92;;
75937;SDS011;64615;32.062;34.834;2024-02-14T04:14:31;17.27;;;3.70;;
75937;SDS011;64615;32.062;34.834;2024-02-14T04:16:57;21.02;;;3.80;;
75937;SDS011;64615;32.062;34.834;2024-02-14T04:19:22;15.60;;;3.50;;
75937;SDS011;64615;32.062;34.834;2024-02-14T04:21:48;23.52;;;3.92;;
75937;SDS011;64615;32.062;34.834;2024-02-14T04:24:14;13.20;;;3.53;;
75937;SDS011;64615;32.062;34.834;2024-02-14T04:26:39;14.20;;;3.50;;
75937;SDS011;64615;32.062;34.834;2024-02-14T04:29:05;15.23;;;3.40;;
75937;SDS011;64615;32.062;34.834;2024-02-14T04:31:31;21.23;;;3.97;;
75937;SDS011;64615;32.062;34.834;2024-02-14T04:33:57;11.43;;;3.85;;
75937;SDS011;64615;32.062;34.834;2024-02-14T04:36:23;15.30;;;3.50;;
75937;SDS011;64615;32.062;34.834;2024-02-14T04:38:49;16.10;;;3.35;;
75937;SDS011;64615;32.062;34.834;2024-02-14T04:41:15;22.52;;;4.15;;
75937;SDS011;64615;32.062;34.834;2024-02-14T04:43:41;18.75;;;3.92;;
75937;SDS011;64615;32.062;34.834;2024-02-14T04:46:07;20.83;;;3.88;;
75937;SDS011;64615;32.062;34.834;2024-02-14T04:48:37;16.20;;;3.38;;
75937;SDS011;64615;32.062;34.834;2024-02-14T04:51:03;27.15;;;3.88;;
75937;SDS011;64615;32.062;34.834;2024-02-14T04:53:32;23.95;;;4.18;;
75937;SDS011;64615;32.062;34.834;2024-02-14T04:55:57;35.22;;;4.55;;
75937;SDS011;64615;32.062;34.834;2024-02-14T04:58:23;29.35;;;4.45;;
75937;SDS011;64615;32.062;34.834;2024-02-14T05:00:49;31.45;;;4.13;;
75937;SDS011;64615;32.062;34.834;2024-02-14T05:03:15;32.75;;;4.85;;
75937;SDS011;64615;32.062;34.834;2024-02-14T05:05:41;25.95;;;3.83;;
75937;SDS011;64615;32.062;34.834;2024-02-14T05:08:07;24.38;;;3.65;;
75937;SDS011;64615;32.062;34.834;2024-02-14T05:10:32;23.10;;;3.72;;
75937;SDS011;64615;32.062;34.834;2024-02-14T05:12:58;24.73;;;3.85;;
75937;SDS011;64615;32.062;34.834;2024-02-14T05:15:24;19.08;;;3.42;;
75937;SDS011;64615;32.062;34.834;2024-02-14T05:17:50;75.00;;;39.42;;
75937;SDS011;64615;32.062;34.834;2024-02-14T05:20:16;106.65;;;59.90;;
75937;SDS011;64615;32.062;34.834;2024-02-14T05:22:42;109.63;;;34.35;;
75937;SDS011;64615;32.062;34.834;2024-02-14T05:25:07;224.00;;;151.77;;
75937;SDS011;64615;32.062;34.834;2024-02-14T05:27:36;141.23;;;92.72;;
75937;SDS011;64615;32.062;34.834;2024-02-14T05:30:02;115.40;;;64.03;;
75937;SDS011;64615;32.062;34.834;2024-02-14T05:32:33;91.93;;;50.00;;
75937;SDS011;64615;32.062;34.834;2024-02-14T05:34:59;79.97;;;41.30;;
75937;SDS011;64615;32.062;34.834;2024-02-14T05:37:25;62.90;;;34.67;;
75937;SDS011;64615;32.062;34.834;2024-02-14T05:39:54;52.38;;;28.33;;
75937;SDS011;64615;32.062;34.834;2024-02-14T05:42:20;61.13;;;27.08;;
75937;SDS011;64615;32.062;34.834;2024-02-14T05:44:46;63.38;;;24.63;;
75937;SDS011;64615;32.062;34.834;2024-02-14T05:47:12;48.38;;;23.60;;
75937;SDS011;64615;32.062;34.834;2024-02-14T05:49:41;50.45;;;22.25;;
75937;SDS011;64615;32.062;34.834;2024-02-14T05:52:07;41.97;;;19.85;;
75937;SDS011;64615;32.062;34.834;2024-02-14T05:54:33;39.58;;;19.63;;
75937;SDS011;64615;32.062;34.834;2024-02-14T05:56:59;40.45;;;17.00;;
75937;SDS011;64615;32.062;34.834;2024-02-14T05:59:27;36.65;;;16.55;;
75937;SDS011;64615;32.062;34.834;2024-02-14T06:01:53;38.22;;;15.57;;
75937;SDS011;64615;32.062;34.834;2024-02-14T06:04:18;37.42;;;14.57;;
75937;SDS011;64615;32.062;34.834;2024-02-14T06:06:44;38.42;;;13.77;;
75937;SDS011;64615;32.062;34.834;2024-02-14T06:09:09;30.20;;;11.68;;
75937;SDS011;64615;32.062;34.834;2024-02-14T06:11:36;32.28;;;12.30;;
75937;SDS011;64615;32.062;34.834;2024-02-14T06:14:07;28.13;;;11.60;;
75937;SDS011;64615;32.062;34.834;2024-02-14T06:16:33;27.50;;;9.85;;
75937;SDS011;64615;32.062;34.834;2024-02-14T06:19:00;23.88;;;10.15;;
75937;SDS011;64615;32.062;34.834;2024-02-14T06:21:26;27.77;;;9.15;;
75937;SDS011;64615;32.062;34.834;2024-02-14T06:23:52;28.83;;;8.95;;
75937;SDS011;64615;32.062;34.834;2024-02-14T06:26:18;25.77;;;7.72;;
75937;SDS011;64615;32.062;34.834;2024-02-14T06:28:45;21.92;;;7.78;;
75937;SDS011;64615;32.062;34.834;2024-02-14T06:31:11;21.73;;;7.10;;
75937;SDS011;64615;32.062;34.834;2024-02-14T06:33:36;18.65;;;6.75;;
75937;SDS011;64615;32.062;34.834;2024-02-14T06:36:02;20.80;;;6.55;;
75937;SDS011;64615;32.062;34.834;2024-02-14T06:38:28;22.13;;;6.13;;
75937;SDS011;64615;32.062;34.834;2024-02-14T06:40:54;18.10;;;6.18;;
75937;SDS011;64615;32.062;34.834;2024-02-14T06:43:19;18.85;;;5.70;;
75937;SDS011;64615;32.062;34.834;2024-02-14T06:45:45;20.23;;;5.20;;
75937;SDS011;64615;32.062;34.834;2024-02-14T06:48:11;15.18;;;4.90;;
75937;SDS011;64615;32.062;34.834;2024-02-14T06:50:37;21.15;;;4.93;;
75937;SDS011;64615;32.062;34.834;2024-02-14T06:53:03;16.58;;;3.97;;
75937;SDS011;64615;32.062;34.834;2024-02-14T06:55:29;18.80;;;3.78;;
75937;SDS011;64615;32.062;34.834;2024-02-14T06:57:57;19.17;;;3.75;;
75937;SDS011;64615;32.062;34.834;2024-02-14T07:00:26;16.95;;;3.40;;
75937;SDS011;64615;32.062;34.834;2024-02-14T07:02:53;15.20;;;3.55;;
75937;SDS011;64615;32.062;34.834;2024-02-14T07:05:19;18.98;;;2.85;;
75937;SDS011;64615;32.062;34.834;2024-02-14T07:07:45;12.13;;;3.00;;
75937;SDS011;64615;32.062;34.834;2024-02-14T07:10:10;19.63;;;2.75;;
75937;SDS011;64615;32.062;34.834;2024-02-14T07:12:36;18.20;;;2.97;;
75937;SDS011;64615;32.062;34.834;2024-02-14T07:15:04;14.32;;;3.05;;
75937;SDS011;64615;32.062;34.834;2024-02-14T07:17:31;15.55;;;2.50;;
75937;SDS011;64615;32.062;34.834;2024-02-14T07:19:57;14.10;;;2.30;;
75937;SDS011;64615;32.062;34.834;2024-02-14T07:22:22;18.20;;;2.90;;
75937;SDS011;64615;32.062;34.834;2024-02-14T07:24:48;23.45;;;2.63;;
75937;SDS011;64615;32.062;34.834;2024-02-14T07:27:14;13.68;;;2.47;;
75937;SDS011;64615;32.062;34.834;2024-02-14T07:29:41;13.23;;;2.50;;
75937;SDS011;64615;32.062;34.834;2024-02-14T07:32:07;19.55;;;2.65;;
75937;SDS011;64615;32.062;34.834;2024-02-14T07:34:33;10.27;;;2.60;;
75937;SDS011;64615;32.062;34.834;2024-02-14T07:36:58;18.10;;;3.38;;
75937;SDS011;64615;32.062;34.834;2024-02-14T07:39:24;14.48;;;2.88;;
75937;SDS011;64615;32.062;34.834;2024-02-14T07:41:50;14.55;;;2.53;;
75937;SDS011;64615;32.062;34.834;2024-02-14T07:44:16;13.05;;;2.58;;
75937;SDS011;64615;32.062;34.834;2024-02-14T07:46:42;12.63;;;3.10;;
75937;SDS011;64615;32.062;34.834;2024-02-14T07:49:08;17.40;;;2.78;;
75937;SDS011;64615;32.062;34.834;2024-02-14T07:51:35;11.90;;;2.55;;
75937;SDS011;64615;32.062;34.834;2024-02-14T07:54:02;14.18;;;2.47;;
75937;SDS011;64615;32.062;34.834;2024-02-14T07:56:29;17.13;;;2.88;;
75937;SDS011;64615;32.062;34.834;2024-02-14T07:58:55;14.85;;;3.17;;
75937;SDS011;64615;32.062;34.834;2024-02-14T08:01:21;18.60;;;2.55;;
75937;SDS011;64615;32.062;34.834;2024-02-14T08:03:47;12.18;;;2.65;;
75937;SDS011;64615;32.062;34.834;2024-02-14T08:06:13;11.93;;;2.50;;
75937;SDS011;64615;32.062;34.834;2024-02-14T08:08:39;10.48;;;2.00;;
75937;SDS011;64615;32.062;34.834;2024-02-14T08:11:04;19.15;;;3.47;;
75937;SDS011;64615;32.062;34.834;2024-02-14T08:13:30;16.00;;;2.97;;
75937;SDS011;64615;32.062;34.834;2024-02-14T08:15:55;17.50;;;3.15;;
75937;SDS011;64615;32.062;34.834;2024-02-14T08:18:21;15.00;;;3.15;;
75937;SDS011;64615;32.062;34.834;2024-02-14T08:20:48;15.02;;;3.15;;
75937;SDS011;64615;32.062;34.834;2024-02-14T08:23:13;15.20;;;3.28;;
75937;SDS011;64615;32.062;34.834;2024-02-14T08:25:39;12.10;;;2.47;;
75937;SDS011;64615;32.062;34.834;2024-02-14T08:28:06;11.45;;;2.80;;
75937;SDS011;64615;32.062;34.834;2024-02-14T08:30:33;14.00;;;3.10;;
75937;SDS011;64615;32.062;34.834;2024-02-14T08:32:59;15.80;;;2.97;;
75937;SDS011;64615;32.062;34.834;2024-02-14T08:35:24;11.15;;;2.53;;
75937;SDS011;64615;32.062;34.834;2024-02-14T08:37:50;11.88;;;2.58;;
75937;SDS011;64615;32.062;34.834;2024-02-14T08:40:16;12.07;;;2.97;;
75937;SDS011;64615;32.062;34.834;2024-02-14T08:42:42;12.82;;;2.50;;
75937;SDS011;64615;32.062;34.834;2024-02-14T08:45:08;14.85;;;2.80;;
75937;SDS011;64615;32.062;34.834;2024-02-14T08:47:34;11.75;;;2.42;;
75937;SDS011;64615;32.062;34.834;2024-02-14T08:49:59;13.35;;;2.70;;
75937;SDS011;64615;32.062;34.834;2024-02-14T08:52:25;13.68;;;2.83;;
75937;SDS011;64615;32.062;34.834;2024-02-14T08:54:51;10.38;;;2.33;;
75937;SDS011;64615;32.062;34.834;2024-02-14T08:57:17;8.98;;;2.45;;
75937;SDS011;64615;32.062;34.834;2024-02-14T08:59:44;12.73;;;2.63;;
75937;SDS011;64615;32.062;34.834;2024-02-14T09:02:12;10.20;;;2.60;;
75937;SDS011;64615;32.062;34.834;2024-02-14T09:04:38;8.63;;;2.03;;
75937;SDS011;64615;32.062;34.834;2024-02-14T09:07:05;12.80;;;2.30;;
75937;SDS011;64615;32.062;34.834;2024-02-14T09:09:32;11.45;;;2.38;;
75937;SDS011;64615;32.062;34.834;2024-02-14T09:11:58;11.82;;;2.90;;
75937;SDS011;64615;32.062;34.834;2024-02-14T09:14:28;12.60;;;2.55;;
75937;SDS011;64615;32.062;34.834;2024-02-14T09:16:54;12.60;;;2.83;;
75937;SDS011;64615;32.062;34.834;2024-02-14T09:19:19;12.82;;;2.40;;
75937;SDS011;64615;32.062;34.834;2024-02-14T09:21:45;12.35;;;2.75;;
75937;SDS011;64615;32.062;34.834;2024-02-14T09:24:10;14.18;;;2.63;;
75937;SDS011;64615;32.062;34.834;2024-02-14T09:26:38;10.27;;;2.60;;
75937;SDS011;64615;32.062;34.834;2024-02-14T09:29:03;15.10;;;2.70;;
75937;SDS011;64615;32.062;34.834;2024-02-14T09:31:30;8.30;;;2.42;;
75937;SDS011;64615;32.062;34.834;2024-02-14T09:33:55;9.27;;;2.63;;
75937;SDS011;64615;32.062;34.834;2024-02-14T09:36:23;14.77;;;3.17;;
75937;SDS011;64615;32.062;34.834;2024-02-14T09:38:50;12.88;;;3.10;;
75937;SDS011;64615;32.062;34.834;2024-02-14T09:44:13;10.75;;;2.70;;
75937;SDS011;64615;32.062;34.834;2024-02-14T09:46:39;11.60;;;3.05;;
75937;SDS011;64615;32.062;34.834;2024-02-14T09:49:06;10.23;;;3.33;;
75937;SDS011;64615;32.062;34.834;2024-02-14T09:51:33;11.45;;;3.78;;
75937;SDS011;64615;32.062;34.834;2024-02-14T09:54:00;12.40;;;4.28;;
75937;SDS011;64615;32.062;34.834;2024-02-14T09:56:26;15.90;;;3.83;;
75937;SDS011;64615;32.062;34.834;2024-02-14T09:58:54;12.45;;;3.63;;
75937;SDS011;64615;32.062;34.834;2024-02-14T10:01:26;17.15;;;3.65;;
75937;SDS011;64615;32.062;34.834;2024-02-14T10:03:52;15.20;;;3.50;;
75937;SDS011;64615;32.062;34.834;2024-02-14T10:06:19;13.43;;;3.65;;
75937;SDS011;64615;32.062;34.834;2024-02-14T10:08:48;19.33;;;3.67;;
75937;SDS011;64615;32.062;34.834;2024-02-14T10:11:14;17.15;;;3.33;;
75937;SDS011;64615;32.062;34.834;2024-02-14T10:13:40;16.05;;;3.65;;
75937;SDS011;64615;32.062;34.834;2024-02-14T10:16:07;18.10;;;3.47;;
75937;SDS011;64615;32.062;34.834;2024-02-14T10:18:33;20.48;;;4.93;;
75937;SDS011;64615;32.062;34.834;2024-02-14T10:20:59;13.57;;;3.13;;
75937;SDS011;64615;32.062;34.834;2024-02-14T10:23:26;9.93;;;2.90;;
75937;SDS011;64615;32.062;34.834;2024-02-14T10:25:53;16.83;;;3.35;;
75937;SDS011;64615;32.062;34.834;2024-02-14T10:28:21;15.15;;;2.78;;
75937;SDS011;64615;32.062;34.834;2024-02-14T10:30:48;12.50;;;2.75;;
75937;SDS011;64615;32.062;34.834;2024-02-14T10:33:17;7.03;;;2.30;;
75937;SDS011;64615;32.062;34.834;2024-02-14T10:35:44;11.02;;;3.03;;
75937;SDS011;64615;32.062;34.834;2024-02-14T10:38:11;15.13;;;3.20;;
75937;SDS011;64615;32.062;34.834;2024-02-14T10:40:37;9.30;;;2.25;;
75937;SDS011;64615;32.062;34.834;2024-02-14T10:43:05;12.90;;;2.40;;
75937;SDS011;64615;32.062;34.834;2024-02-14T10:45:31;11.02;;;2.50;;
75937;SDS011;64615;32.062;34.834;2024-02-14T10:47:57;8.02;;;2.35;;
75937;SDS011;64615;32.062;34.834;2024-02-14T10:50:25;11.68;;;2.60;;
75937;SDS011;64615;32.062;34.834;2024-02-14T10:55:22;11.13;;;2.20;;
75937;SDS011;64615;32.062;34.834;2024-02-14T10:57:54;11.18;;;2.05;;
75937;SDS011;64615;32.062;34.834;2024-02-14T11:00:21;11.00;;;2.55;;
75937;SDS011;64615;32.062;34.834;2024-02-14T11:02:47;13.45;;;2.60;;
75937;SDS011;64615;32.062;34.834;2024-02-14T11:05:14;12.80;;;2.67;;
75937;SDS011;64615;32.062;34.834;2024-02-14T11:07:46;6.22;;;2.13;;
75937;SDS011;64615;32.062;34.834;2024-02-14T11:10:14;10.07;;;2.47;;
75937;SDS011;64615;32.062;34.834;2024-02-14T11:12:40;11.73;;;2.30;;
75937;SDS011;64615;32.062;34.834;2024-02-14T11:15:10;20.30;;;2.67;;
75937;SDS011;64615;32.062;34.834;2024-02-14T11:17:44;18.65;;;3.10;;
75937;SDS011;64615;32.062;34.834;2024-02-14T11:20:14;11.55;;;2.72;;
75937;SDS011;64615;32.062;34.834;2024-02-14T11:22:52;14.55;;;3.15;;
75937;SDS011;64615;32.062;34.834;2024-02-14T11:25:32;18.77;;;2.60;;
75937;SDS011;64615;32.062;34.834;2024-02-14T11:28:02;13.48;;;2.97;;
75937;SDS011;64615;32.062;34.834;2024-02-14T11:30:51;13.30;;;2.83;;
75937;SDS011;64615;32.062;34.834;2024-02-14T11:33:17;16.17;;;2.35;;
75937;SDS011;64615;32.062;34.834;2024-02-14T11:35:44;33.20;;;2.83;;
75937;SDS011;64615;32.062;34.834;2024-02-14T11:38:11;28.45;;;3.00;;
75937;SDS011;64615;32.062;34.834;2024-02-14T11:40:37;22.45;;;2.85;;
75937;SDS011;64615;32.062;34.834;2024-02-14T11:43:04;25.85;;;2.90;;
75937;SDS011;64615;32.062;34.834;2024-02-14T11:45:35;14.50;;;2.38;;
75937;SDS011;64615;32.062;34.834;2024-02-14T11:48:04;16.02;;;2.60;;
75937;SDS011;64615;32.062;34.834;2024-02-14T11:50:30;11.88;;;2.60;;
75937;SDS011;64615;32.062;34.834;2024-02-14T11:52:58;23.88;;;2.60;;
75937;SDS011;64615;32.062;34.834;2024-02-14T11:55:27;10.50;;;2.10;;
75937;SDS011;64615;32.062;34.834;2024-02-14T11:57:54;9.20;;;2.53;;
75937;SDS011;64615;32.062;34.834;2024-02-14T12:00:20;15.75;;;2.50;;
75937;SDS011;64615;32.062;34.834;2024-02-14T12:02:46;10.30;;;2.03;;
75937;SDS011;64615;32.062;34.834;2024-02-14T12:05:11;9.55;;;2.20;;
75937;SDS011;64615;32.062;34.834;2024-02-14T12:07:39;9.90;;;2.33;;
75937;SDS011;64615;32.062;34.834;2024-02-14T12:10:05;9.88;;;2.22;;
75937;SDS011;64615;32.062;34.834;2024-02-14T12:12:31;9.52;;;2.33;;
75937;SDS011;64615;32.062;34.834;2024-02-14T12:14:57;9.40;;;2.08;;
75937;SDS011;64615;32.062;34.834;2024-02-14T12:17:24;11.00;;;2.22;;
75937;SDS011;64615;32.062;34.834;2024-02-14T12:19:49;7.47;;;1.92;;
75937;SDS011;64615;32.062;34.834;2024-02-14T12:22:17;11.65;;;2.08;;
75937;SDS011;64615;32.062;34.834;2024-02-14T12:24:45;11.27;;;2.72;;
75937;SDS011;64615;32.062;34.834;2024-02-14T12:27:13;12.30;;;2.13;;
75937;SDS011;64615;32.062;34.834;2024-02-14T12:29:41;7.78;;;2.22;;
75937;SDS011;64615;32.062;34.834;2024-02-14T12:32:11;11.10;;;2.30;;
75937;SDS011;64615;32.062;34.834;2024-02-14T12:34:37;11.45;;;1.90;;
75937;SDS011;64615;32.062;34.834;2024-02-14T12:37:02;8.90;;;1.90;;
75937;SDS011;64615;32.062;34.834;2024-02-14T12:39:28;8.77;;;2.25;;
75937;SDS011;64615;32.062;34.834;2024-02-14T12:41:54;9.25;;;2.10;;
75937;SDS011;64615;32.062;34.834;2024-02-14T12:44:20;9.95;;;2.00;;
75937;SDS011;64615;32.062;34.834;2024-02-14T12:46:45;9.48;;;2.13;;
75937;SDS011;64615;32.062;34.834;2024-02-14T12:49:11;8.20;;;2.15;;
75937;SDS011;64615;32.062;34.834;2024-02-14T12:51:37;11.05;;;2.03;;
75937;SDS011;64615;32.062;34.834;2024-02-14T12:54:04;9.95;;;2.17;;
75937;SDS011;64615;32.062;34.834;2024-02-14T12:56:31;7.47;;;2.13;;
75937;SDS011;64615;32.062;34.834;2024-02-14T12:58:57;9.90;;;2.28;;
75937;SDS011;64615;32.062;34.834;2024-02-14T13:01:24;8.13;;;2.40;;
75937;SDS011;64615;32.062;34.834;2024-02-14T13:03:50;10.27;;;2.58;;
75937;SDS011;64615;32.062;34.834;2024-02-14T13:06:16;9.15;;;2.15;;
75937;SDS011;64615;32.062;34.834;2024-02-14T13:08:41;7.65;;;2.15;;
75937;SDS011;64615;32.062;34.834;2024-02-14T13:11:07;10.35;;;2.42;;
75937;SDS011;64615;32.062;34.834;2024-02-14T13:13:34;6.25;;;1.90;;
75937;SDS011;64615;32.062;34.834;2024-02-14T13:16:00;12.65;;;2.38;;
75937;SDS011;64615;32.062;34.834;2024-02-14T13:18:25;8.73;;;2.30;;
75937;SDS011;64615;32.062;34.834;2024-02-14T13:20:51;8.30;;;2.25;;
75937;SDS011;64615;32.062;34.834;2024-02-14T13:23:24;8.35;;;2.00;;
75937;SDS011;64615;32.062;34.834;2024-02-14T13:25:53;7.65;;;2.08;;
75937;SDS011;64615;32.062;34.834;2024-02-14T13:28:19;8.02;;;2.20;;
75937;SDS011;64615;32.062;34.834;2024-02-14T13:30:45;5.53;;;1.85;;
75937;SDS011;64615;32.062;34.834;2024-02-14T13:33:13;6.53;;;1.83;;
75937;SDS011;64615;32.062;34.834;2024-02-14T13:35:39;7.28;;;1.80;;
75937;SDS011;64615;32.062;34.834;2024-02-14T13:38:05;6.18;;;1.95;;
75937;SDS011;64615;32.062;34.834;2024-02-14T13:40:31;7.47;;;1.80;;
75937;SDS011;64615;32.062;34.834;2024-02-14T13:42:57;5.68;;;1.58;;
75937;SDS011;64615;32.062;34.834;2024-02-14T13:45:23;9.95;;;1.80;;
75937;SDS011;64615;32.062;34.834;2024-02-14T13:47:49;7.90;;;1.80;;
75937;SDS011;64615;32.062;34.834;2024-02-14T13:50:16;7.13;;;1.98;;
75937;SDS011;64615;32.062;34.834;2024-02-14T13:52:41;5.00;;;1.60;;
75937;SDS011;64615;32.062;34.834;2024-02-14T13:55:07;6.68;;;1.48;;
75937;SDS011;64615;32.062;34.834;2024-02-14T13:57:35;6.25;;;1.70;;
75937;SDS011;64615;32.062;34.834;2024-02-14T14:00:07;18.20;;;2.03;;
75937;SDS011;64615;32.062;34.834;2024-02-14T14:02:37;7.93;;;2.00;;
75937;SDS011;64615;32.062;34.834;2024-02-14T14:05:07;12.82;;;2.08;;
75937;SDS011;64615;32.062;34.834;2024-02-14T14:07:38;15.70;;;2.42;;
75937;SDS011;64615;32.062;34.834;2024-02-14T14:10:10;10.88;;;2.00;;
75937;SDS011;64615;32.062;34.834;2024-02-14T14:12:36;9.25;;;2.00;;
75937;SDS011;64615;32.062;34.834;2024-02-14T14:15:02;8.23;;;1.60;;
75937;SDS011;64615;32.062;34.834;2024-02-14T14:17:28;8.63;;;1.77;;
75937;SDS011;64615;32.062;34.834;2024-02-14T14:19:53;9.93;;;1.65;;
75937;SDS011;64615;32.062;34.834;2024-02-14T14:22:19;6.32;;;1.58;;
75937;SDS011;64615;32.062;34.834;2024-02-14T14:24:46;6.65;;;1.63;;
75937;SDS011;64615;32.062;34.834;2024-02-14T14:27:12;6.55;;;1.30;;